メインページ
METAR-TAF:

METAR-TAF

空港 :

ハリファックス, ノバスコシア州, カナダ

ハリファックス・ロバート・L・スタンフィールド国際空港

緯度: 44-53N, 経度: 063-30W, 海抜: 145m

現時点の気象観測

当レポートは43分前の19:00(UTC)に作成
の風 10kt、最大20ktの突風を伴う
気温 3°C
湿度 60%
気圧 1018 hPa
視程: 24.1km
高度4000ftの曇り

METAR: CYHZ 251900Z 35010G20KT 15SM OVC040 03/M04 A3006 RMK SC8 SLP188

時間: 16:43 (19:43 UTC)

予報

当レポートは2時間5分前の17:38(UTC)に作成
予報は25日の 18時(UTC)から 26日の 18時(UTC)まで有効
北/北西の風 15kt
視程: 10km
高度3000ftの千切れ雲あり
25日の 21時(UTC)から 26日の 04時(UTC)まで一時的に
高度3000ftの雲は散在している
25日の 22時(UTC)から 25日の 24時(UTC)まで徐々に
の風 8kt
26日の 0400時(UTC)から
北/北西の風 10kt
視程: 10km
晴天
26日の 13時(UTC)から 26日の 15時(UTC)まで徐々に
北西の風 14kt

TAF: CYHZ 251738Z 2518/2618 34015KT P6SM BKN030 TEMPO 2521/2604 SCT030 BECMG 2522/2524 01008KT FM260400 34010KT P6SM SKC BECMG 2613/2615 32014KT RMK NXT FCST BY 252100Z

4,000以上の空港の気象観測と天気予報(METAR報とTAF報)

利用可能な観測所は地図上に黄色い丸と赤い丸で示す。

丸の上にカーソルを重ねると観測所名を参照できる。

次にクリックすると気象観測と天気予報を参照できる。

マップの切り替え:黒色「×」印の緑ボタンをクリックして拡大、「-」印の緑ボタンをクリックして縮小、緑色の三角印をクリックして隣りの地図に切り替え


METAR-TAF: